Terminal Aerodrome Forecast
Issued by NWS

Home | Current Version | Previous Version | Text Only | Print | Product List | Glossary On
Versions: 1 2 3 4 5 6 7 8 9 10 11 12 13 14 15 16 17 18 19 20 21 22 23 24 25 26 27
198
FTUS46 KPDT 171556 AAC
TAFYKM
TAF AMD
KYKM 171556Z 1716/1812 VRB03KT 3SM BR OVC005
     FM172000 VRB04KT 4SM BR BKN007 BKN070
     FM172200 27005KT P6SM SCT070=

USA.gov is the U.S. government's official web portal to all federal, state and local government web resources and services.